createdAt,value
2023-01-26T10:06:41.510Z,0.30
2023-01-26T10:09:33.233Z,0.40
2023-01-26T10:12:31.136Z,0.50
2023-01-26T10:15:38.973Z,0.60
2023-01-26T10:38:51.757Z,0.50
2023-01-26T10:41:27.448Z,0.70
2023-01-26T10:44:23.313Z,0.80
2023-01-26T10:47:21.378Z,0.80
2023-01-26T10:49:49.371Z,0.90
2023-01-26T10:52:27.834Z,0.90
2023-01-26T10:55:21.567Z,1.10
2023-01-26T10:57:49.176Z,1.00
2023-01-26T11:00:36.509Z,0.80
2023-01-26T11:03:19.930Z,1.00
2023-01-26T11:06:04.837Z,1.00
2023-01-26T11:08:39.759Z,1.00
2023-01-26T11:11:23.815Z,1.10
2023-01-26T11:14:18.802Z,1.10
2023-01-26T11:17:25.252Z,1.00
2023-01-26T11:20:46.785Z,0.90
2023-01-26T11:24:10.190Z,0.90
2023-01-26T11:27:18.176Z,1.20
2023-01-26T11:31:16.311Z,1.00
2023-01-26T11:35:01.578Z,0.90
2023-01-26T11:38:22.711Z,1.10
2023-01-26T11:41:51.521Z,1.00
2023-01-26T11:45:16.924Z,1.00
2023-01-26T11:48:42.924Z,1.10
2023-01-26T11:51:56.192Z,0.90
2023-01-26T11:55:02.880Z,1.20
2023-01-26T11:57:59.743Z,1.10
2023-01-26T12:00:48.893Z,1.00
2023-01-26T12:03:41.079Z,1.00
2023-01-26T12:06:26.992Z,1.10
2023-01-26T12:09:23.123Z,1.20
2023-01-26T12:56:42.510Z,1.00
2023-01-26T12:59:46.475Z,1.10
2023-01-26T13:02:30.510Z,0.90
2023-01-26T13:05:04.194Z,1.10
2023-01-26T13:07:40.445Z,0.90
2023-01-26T13:10:18.028Z,1.00
2023-01-26T13:13:29.883Z,1.00
2023-01-26T13:16:17.275Z,0.90
2023-01-26T13:19:03.205Z,1.00
2023-01-26T13:21:39.259Z,1.20
2023-01-26T13:24:18.706Z,1.10
2023-01-26T13:27:44.119Z,1.00
2023-01-26T13:30:29.545Z,0.80
